createdAt,value
2022-10-19T00:08:35.281Z,2.5
2022-10-19T00:18:59.948Z,2.7
2022-10-19T00:28:59.970Z,2.7
2022-10-19T00:38:35.284Z,2.6
2022-10-19T00:48:10.663Z,2.6
2022-10-19T00:58:10.615Z,2.9
2022-10-19T01:08:10.628Z,2.8
2022-10-19T01:18:10.622Z,3.1
2022-10-19T01:28:35.333Z,3.0
2022-10-19T01:38:10.625Z,3.0
2022-10-19T01:48:10.626Z,3.1
2022-10-19T01:58:10.626Z,2.9
2022-10-19T02:08:35.302Z,2.7
2022-10-19T02:18:10.632Z,2.7
2022-10-19T02:28:10.635Z,3.0
2022-10-19T02:58:10.643Z,1.8
2022-10-19T03:08:10.648Z,2.2
2022-10-19T04:08:10.671Z,2.7
2022-10-19T04:18:10.679Z,2.6
2022-10-19T04:28:10.665Z,2.8
2022-10-19T04:58:10.674Z,3.1
2022-10-19T05:08:10.684Z,3.1
2022-10-19T05:28:10.677Z,2.3
2022-10-19T05:38:35.351Z,2.6
2022-10-19T05:48:10.696Z,2.9
2022-10-19T05:58:10.691Z,3.1
2022-10-19T06:08:35.356Z,3.8
2022-10-19T06:18:10.688Z,4.1
2022-10-19T06:28:10.701Z,3.8
2022-10-19T06:38:35.361Z,3.7
2022-10-19T06:48:10.700Z,3.6
2022-10-19T06:58:10.716Z,4.0
2022-10-19T07:08:10.762Z,4.4
2022-10-19T07:18:10.725Z,5.2
2022-10-19T07:28:10.716Z,4.6
2022-10-19T07:38:10.727Z,4.6
2022-10-19T07:48:10.734Z,4.4
2022-10-19T08:08:10.637Z,5.0
2022-10-19T08:28:10.660Z,4.3
2022-10-19T08:38:10.655Z,4.4
2022-10-19T08:48:35.322Z,3.8
2022-10-19T08:58:10.664Z,3.5
2022-10-19T09:08:14.175Z,2.8
2022-10-19T09:18:10.673Z,2.7
2022-10-19T09:28:10.674Z,2.8
2022-10-19T09:38:10.677Z,1.9
2022-10-19T09:48:12.967Z,1.9
2022-10-19T09:58:10.686Z,1.4
2022-10-19T10:08:10.691Z,1.4
2022-10-19T10:18:10.700Z,1.4
2022-10-19T10:28:10.694Z,1.8
2022-10-19T10:38:10.704Z,1.5
2022-10-19T10:48:10.705Z,1.9
2022-10-19T10:58:10.705Z,1.4
2022-10-19T11:08:10.714Z,1.5
2022-10-19T11:18:10.721Z,1.6
2022-10-19T11:28:10.780Z,1.6
2022-10-19T11:38:20.861Z,1.5
2022-10-19T11:48:10.739Z,1.5
2022-10-19T11:58:10.738Z,1.5
2022-10-19T12:08:10.812Z,1.5
2022-10-19T12:18:10.755Z,1.3
2022-10-19T12:28:10.755Z,1.4
2022-10-19T12:38:10.767Z,1.6
2022-10-19T12:48:10.760Z,1.7
2022-10-19T12:58:10.762Z,1.5
2022-10-19T13:08:13.777Z,1.2
2022-10-19T13:18:10.774Z,1.3
2022-10-19T13:28:10.778Z,2.1
2022-10-19T13:38:10.787Z,2.1
2022-10-19T13:48:10.791Z,2.0
2022-10-19T13:58:10.796Z,2.0
2022-10-19T14:08:10.790Z,2.8
2022-10-19T14:18:15.232Z,1.9
2022-10-19T14:28:10.796Z,2.7
2022-10-19T14:38:10.791Z,2.0
2022-10-19T14:58:10.803Z,2.5
2022-10-19T15:08:10.810Z,2.3
2022-10-19T15:18:25.184Z,2.2
2022-10-19T15:38:10.829Z,2.8
2022-10-19T15:48:10.825Z,2.7
2022-10-19T15:58:10.827Z,3.0
2022-10-19T16:08:12.486Z,3.0
2022-10-19T16:18:10.827Z,2.8
2022-10-19T16:28:10.843Z,3.1
2022-10-19T16:38:10.836Z,4.8
2022-10-19T16:48:10.836Z,2.8
2022-10-19T16:58:10.849Z,2.2
2022-10-19T17:08:10.840Z,2.3
2022-10-19T17:18:10.881Z,2.5
2022-10-19T17:28:10.845Z,2.3
2022-10-19T17:38:10.847Z,2.4
2022-10-19T17:48:10.851Z,2.1
2022-10-19T17:58:10.867Z,2.6
2022-10-19T18:08:10.872Z,2.8
2022-10-19T18:18:10.858Z,3.0
2022-10-19T18:28:10.871Z,2.6
2022-10-19T18:38:10.865Z,2.9
2022-10-19T18:48:10.868Z,2.5
2022-10-19T18:58:10.888Z,2.4
2022-10-19T19:08:10.869Z,3.0
2022-10-19T19:28:10.899Z,2.4
2022-10-19T19:48:10.879Z,3.1
2022-10-19T19:58:10.892Z,2.4
2022-10-19T20:08:10.889Z,2.6
2022-10-19T20:48:10.905Z,2.9
2022-10-19T20:58:10.901Z,2.8
2022-10-19T21:08:10.916Z,3.1
2022-10-19T21:18:10.934Z,3.5
2022-10-19T21:28:10.906Z,3.5
2022-10-19T21:38:10.911Z,3.3
2022-10-19T21:48:35.582Z,3.5
2022-10-19T21:58:10.919Z,3.1
2022-10-19T22:08:10.916Z,4.0
2022-10-19T22:28:10.928Z,3.6
2022-10-19T22:38:10.928Z,3.9
2022-10-19T22:48:11.032Z,4.9
2022-10-19T23:08:11.037Z,4.2
2022-10-19T23:28:10.934Z,4.1
2022-10-19T23:38:11.049Z,4.0
2022-10-19T23:48:10.950Z,4.3
2022-10-19T23:58:10.953Z,4.4
